createdAt,value
2016-01-25T00:00:46.138Z,3.9
2016-01-25T00:01:44.609Z,3.9
2016-01-25T00:02:43.066Z,3.9
2016-01-25T00:03:41.523Z,3.9
2016-01-25T00:04:40.042Z,3.9
2016-01-25T00:05:41.812Z,3.9
2016-01-25T00:06:40.239Z,3.9
2016-01-25T00:07:38.694Z,3.9
2016-01-25T00:08:37.150Z,3.9
2016-01-25T00:09:35.607Z,3.9
2016-01-25T00:10:34.062Z,3.9
2016-01-25T00:11:32.534Z,3.9
2016-01-25T00:12:31.007Z,3.9
2016-01-25T00:13:29.431Z,3.9
2016-01-25T00:14:27.950Z,4
2016-01-25T00:15:29.906Z,4
2016-01-25T00:16:28.410Z,4
2016-01-25T00:17:27.134Z,4
2016-01-25T00:18:25.584Z,4
2016-01-25T00:19:24.310Z,4
2016-01-25T00:20:23.018Z,4
2016-01-25T00:21:21.723Z,4.1
2016-01-25T00:22:20.447Z,4.1
2016-01-25T00:23:19.167Z,4.1
2016-01-25T00:24:17.920Z,4.1
2016-01-25T00:25:19.675Z,4.1
2016-01-25T00:26:18.396Z,4.1
2016-01-25T00:27:17.055Z,4.1
2016-01-25T00:28:15.323Z,4.1
2016-01-25T00:29:14.029Z,4.1
2016-01-25T00:30:12.752Z,4.1
2016-01-25T00:31:11.458Z,4.1
2016-01-25T00:32:10.180Z,4.1
2016-01-25T00:33:08.886Z,4.1
2016-01-25T00:34:07.437Z,4.1
2016-01-25T00:35:09.143Z,4.1
2016-01-25T00:36:07.880Z,4.1
2016-01-25T00:37:06.586Z,4.1
2016-01-25T00:38:05.276Z,4.1
2016-01-25T00:39:04.029Z,4.1
2016-01-25T00:40:02.735Z,4.1
2016-01-25T00:41:01.425Z,4.1
2016-01-25T00:42:00.163Z,4.1
2016-01-25T00:42:58.853Z,4.1
2016-01-25T00:43:57.638Z,4.1
2016-01-25T00:44:59.374Z,4.1
2016-01-25T00:45:58.064Z,4.1
2016-01-25T00:46:56.803Z,4.2
2016-01-25T00:47:55.540Z,4.2
2016-01-25T00:48:54.233Z,4.2
2016-01-25T00:49:52.972Z,4.2
2016-01-25T00:50:51.693Z,4.2
2016-01-25T00:51:50.399Z,4.1
2016-01-25T00:52:49.104Z,4.1
2016-01-25T00:53:47.872Z,4.1
2016-01-25T00:54:49.614Z,4.1
2016-01-25T00:55:48.336Z,4.1
2016-01-25T00:56:47.026Z,4.1
2016-01-25T00:57:45.731Z,4.1
2016-01-25T00:58:44.454Z,4.1
2016-01-25T00:59:43.177Z,4.1
2016-01-25T01:00:41.898Z,4.2
2016-01-25T01:01:40.619Z,4.1
2016-01-25T01:02:39.341Z,4.1
2016-01-25T01:03:38.110Z,4.2
2016-01-25T01:04:39.833Z,4.1
2016-01-25T01:05:38.523Z,4.1
2016-01-25T01:06:37.260Z,4.1
2016-01-25T01:07:35.966Z,4.1
2016-01-25T01:08:34.703Z,4.1
2016-01-25T01:09:33.410Z,4.2
2016-01-25T01:10:32.131Z,4.1
2016-01-25T01:11:30.837Z,4.1
2016-01-25T01:12:29.559Z,4.1
2016-01-25T01:13:28.327Z,4.2
2016-01-25T01:14:30.065Z,4.2
2016-01-25T01:15:28.771Z,4.2
2016-01-25T01:16:27.509Z,4.2
2016-01-25T01:17:26.201Z,4.2
2016-01-25T01:18:24.907Z,4.2
2016-01-25T01:19:23.623Z,4.2
2016-01-25T01:20:22.345Z,4.1
2016-01-25T01:21:21.050Z,4.1
2016-01-25T01:22:19.774Z,4.1
2016-01-25T01:23:18.544Z,4.2
2016-01-25T01:24:20.281Z,4.2
2016-01-25T01:25:18.973Z,4.2
2016-01-25T01:26:17.710Z,4.2
2016-01-25T01:27:16.416Z,4.2
2016-01-25T01:28:15.124Z,4.2
2016-01-25T01:29:13.845Z,4.2
2016-01-25T01:30:12.566Z,4.2
2016-01-25T01:31:11.272Z,4.3
2016-01-25T01:32:09.994Z,4.2
2016-01-25T01:33:08.764Z,4.2
2016-01-25T01:34:10.503Z,4.2
2016-01-25T01:35:09.192Z,4.3
2016-01-25T01:36:07.930Z,4.3
2016-01-25T01:37:06.748Z,4.3
2016-01-25T01:38:05.391Z,4.3
2016-01-25T01:39:04.066Z,4.3
2016-01-25T01:40:02.787Z,4.3
2016-01-25T01:41:01.493Z,4.3
2016-01-25T01:42:00.201Z,4.3
2016-01-25T01:42:58.984Z,4.3
2016-01-25T01:44:00.706Z,4.3
2016-01-25T01:44:59.443Z,4.3
2016-01-25T01:45:58.149Z,4.3
2016-01-25T01:46:56.871Z,4.3
2016-01-25T01:47:55.573Z,4.3
2016-01-25T01:48:54.292Z,4.3
2016-01-25T01:49:52.998Z,4.3
2016-01-25T01:50:51.783Z,4.3
2016-01-25T01:51:50.426Z,4.3
2016-01-25T01:52:49.225Z,4.3
2016-01-25T01:53:50.916Z,4.3
2016-01-25T01:54:49.638Z,4.3
2016-01-25T01:55:48.360Z,4.3
2016-01-25T01:56:47.065Z,4.3
2016-01-25T01:57:45.787Z,4.3
2016-01-25T01:58:44.510Z,4.3
2016-01-25T01:59:43.232Z,4.3
2016-01-25T02:00:41.938Z,4.3
2016-01-25T02:01:40.643Z,4.3
2016-01-25T02:02:39.412Z,4.3
2016-01-25T02:03:41.149Z,4.3
2016-01-25T02:04:39.840Z,4.3
2016-01-25T02:05:38.562Z,4.3
2016-01-25T02:06:37.267Z,4.3
2016-01-25T02:07:36.270Z,4.3
2016-01-25T02:08:34.976Z,4.3
2016-01-25T02:09:33.683Z,4.3
2016-01-25T02:10:32.388Z,4.3
2016-01-25T02:11:31.114Z,4.3
2016-01-25T02:12:29.899Z,4.3
2016-01-25T02:13:31.635Z,4.3
2016-01-25T02:14:30.341Z,4.3
2016-01-25T02:15:29.048Z,4.3
2016-01-25T02:16:27.770Z,4.3
2016-01-25T02:17:26.500Z,4.3
2016-01-25T02:18:25.143Z,4.4
2016-01-25T02:19:24.177Z,4.4
2016-01-25T02:20:22.885Z,4.3
2016-01-25T02:21:21.559Z,4.4
2016-01-25T02:22:20.566Z,4.4
2016-01-25T02:23:23.049Z,4.4
2016-01-25T02:24:21.156Z,4.4
2016-01-25T02:25:19.846Z,4.4
2016-01-25T02:26:18.505Z,4.4
2016-01-25T02:27:17.133Z,4.4
2016-01-25T02:28:16.168Z,4.4
2016-01-25T02:29:14.895Z,4.4
2016-01-25T02:30:13.522Z,4.4
2016-01-25T02:31:12.510Z,4.4
2016-01-25T02:32:11.605Z,4.4
2016-01-25T02:33:13.269Z,4.4
2016-01-25T02:34:12.226Z,4.4
2016-01-25T02:35:11.274Z,4.4
2016-01-25T02:36:09.949Z,4.5
2016-01-25T02:37:08.642Z,4.4
2016-01-25T02:38:07.659Z,4.4
2016-01-25T02:39:06.506Z,4.4
2016-01-25T02:40:05.290Z,4.4
2016-01-25T02:41:04.231Z,4.4
2016-01-25T02:42:03.296Z,4.4
2016-01-25T02:43:05.002Z,4.4
2016-01-25T02:44:03.974Z,4.4
2016-01-25T02:45:02.946Z,4.4
2016-01-25T02:46:01.897Z,4.5
2016-01-25T02:47:00.885Z,4.5
2016-01-25T02:47:59.872Z,4.5
2016-01-25T02:48:58.812Z,4.5
2016-01-25T02:49:57.782Z,4.5
2016-01-25T02:50:56.769Z,4.5
2016-01-25T02:51:55.803Z,4.5
2016-01-25T02:52:57.524Z,4.5
2016-01-25T02:53:56.496Z,4.5
2016-01-25T02:54:55.472Z,4.5
2016-01-25T02:55:54.693Z,4.5
2016-01-25T02:56:53.633Z,4.5
2016-01-25T02:57:52.638Z,4.5
2016-01-25T02:58:51.594Z,4.5
2016-01-25T02:59:50.566Z,4.5
2016-01-25T03:00:49.538Z,4.5
2016-01-25T03:01:48.776Z,4.5
2016-01-25T03:02:50.341Z,4.5
2016-01-25T03:03:49.274Z,4.5
2016-01-25T03:04:48.514Z,4.5
2016-01-25T03:05:47.453Z,4.5
2016-01-25T03:06:46.473Z,4.5
2016-01-25T03:07:45.397Z,4.5
2016-01-25T03:08:44.636Z,4.6
2016-01-25T03:09:43.857Z,4.6
2016-01-25T03:10:43.077Z,4.6
2016-01-25T03:11:42.347Z,4.6
2016-01-25T03:12:44.101Z,4.6
2016-01-25T03:13:43.056Z,4.6
2016-01-25T03:14:42.284Z,4.6
2016-01-25T03:15:41.505Z,4.6
2016-01-25T03:16:40.743Z,4.6
2016-01-25T03:17:39.715Z,4.6
2016-01-25T03:18:38.921Z,4.6
2016-01-25T03:19:37.925Z,4.6
2016-01-25T03:20:37.119Z,4.6
2016-01-25T03:21:36.449Z,4.6
2016-01-25T03:22:38.171Z,4.7
2016-01-25T03:23:37.097Z,4.7
2016-01-25T03:24:36.083Z,4.7
2016-01-25T03:25:35.306Z,4.7
2016-01-25T03:26:34.511Z,4.7
2016-01-25T03:27:33.749Z,4.8
2016-01-25T03:28:32.987Z,4.7
2016-01-25T03:29:32.207Z,4.7
2016-01-25T03:30:31.432Z,4.7
2016-01-25T03:31:30.466Z,4.7
2016-01-25T03:32:32.188Z,4.7
2016-01-25T03:33:31.410Z,4.8
2016-01-25T03:34:30.679Z,4.8
2016-01-25T03:35:29.868Z,4.8
2016-01-25T03:36:29.091Z,4.8
2016-01-25T03:37:28.313Z,4.8
2016-01-25T03:38:27.551Z,4.8
2016-01-25T03:39:26.773Z,4.8
2016-01-25T03:40:25.980Z,4.8
2016-01-25T03:41:25.295Z,4.8
2016-01-25T03:42:27.003Z,4.8
2016-01-25T03:43:26.225Z,4.9
2016-01-25T03:44:25.446Z,4.9
2016-01-25T03:45:24.683Z,4.9
2016-01-25T03:46:23.896Z,4.9
2016-01-25T03:47:23.117Z,4.9
2016-01-25T03:48:22.339Z,4.9
2016-01-25T03:49:21.559Z,4.9
2016-01-25T03:50:20.832Z,4.9
2016-01-25T03:51:20.100Z,4.9
2016-01-25T03:52:21.806Z,4.9
2016-01-25T03:53:21.027Z,4.9
2016-01-25T03:54:20.249Z,4.9
2016-01-25T03:55:19.472Z,4.9
2016-01-25T03:56:18.708Z,4.9
2016-01-25T03:57:17.930Z,4.9
2016-01-25T03:58:17.152Z,4.9
2016-01-25T03:59:16.373Z,4.9
2016-01-25T04:00:15.595Z,4.9
2016-01-25T04:01:14.879Z,4.9
2016-01-25T04:02:16.633Z,5
2016-01-25T04:03:15.839Z,5
2016-01-25T04:04:15.060Z,5
2016-01-25T04:05:14.501Z,5
2016-01-25T04:06:13.536Z,5
2016-01-25T04:07:12.742Z,5
2016-01-25T04:08:11.963Z,5
2016-01-25T04:09:11.189Z,5
2016-01-25T04:10:10.395Z,5
2016-01-25T04:11:09.726Z,5
2016-01-25T04:12:11.432Z,5
2016-01-25T04:13:10.669Z,5
2016-01-25T04:14:09.860Z,5.1
2016-01-25T04:15:09.107Z,5.1
2016-01-25T04:16:08.329Z,5.1
2016-01-25T04:17:07.550Z,5.1
2016-01-25T04:18:06.774Z,5.1
2016-01-25T04:19:05.995Z,5.1
2016-01-25T04:20:05.233Z,5.1
2016-01-25T04:21:04.502Z,5.1
2016-01-25T04:22:06.239Z,5.2
2016-01-25T04:23:05.461Z,5.2
2016-01-25T04:24:04.666Z,5.2
2016-01-25T04:25:03.920Z,5.1
2016-01-25T04:26:03.140Z,5.2
2016-01-25T04:27:02.407Z,5.1
2016-01-25T04:28:01.598Z,5.1
2016-01-25T04:29:00.821Z,5.2
2016-01-25T04:30:00.042Z,5.2
2016-01-25T04:30:59.313Z,5.2
2016-01-25T04:32:01.049Z,5.2
2016-01-25T04:33:00.271Z,5.3
2016-01-25T04:33:59.479Z,5.2
2016-01-25T04:34:58.740Z,5.3
2016-01-25T04:35:57.935Z,5.3
2016-01-25T04:36:57.146Z,5.3
2016-01-25T04:37:56.373Z,5.2
2016-01-25T04:38:55.568Z,5.2
2016-01-25T04:39:54.831Z,5.2
2016-01-25T04:40:54.064Z,5.2
2016-01-25T04:41:55.797Z,5.2
2016-01-25T04:42:55.015Z,5.3
2016-01-25T04:43:54.249Z,5.3
2016-01-25T04:44:53.468Z,5.3
2016-01-25T04:45:52.691Z,5.3
2016-01-25T04:46:51.911Z,5.3
2016-01-25T04:47:51.115Z,5.3
2016-01-25T04:48:50.366Z,5.4
2016-01-25T04:49:49.618Z,5.4
2016-01-25T04:50:48.871Z,5.4
2016-01-25T04:51:50.607Z,5.4
2016-01-25T04:52:49.829Z,5.4
2016-01-25T04:53:49.065Z,5.4
2016-01-25T04:54:48.270Z,5.5
2016-01-25T04:55:47.493Z,5.5
2016-01-25T04:56:46.714Z,5.5
2016-01-25T04:57:45.935Z,5.5
2016-01-25T04:58:45.174Z,5.5
2016-01-25T04:59:44.396Z,5.5
2016-01-25T05:00:43.681Z,5.5
2016-01-25T05:01:45.387Z,5.5
2016-01-25T05:02:44.608Z,5.5
2016-01-25T05:03:43.851Z,5.5
2016-01-25T05:04:43.088Z,5.5
2016-01-25T05:05:42.294Z,5.5
2016-01-25T05:06:41.515Z,5.5
2016-01-25T05:07:40.739Z,5.5
2016-01-25T05:08:39.962Z,5.5
2016-01-25T05:09:39.168Z,5.5
2016-01-25T05:10:38.468Z,5.6
2016-01-25T05:11:40.189Z,5.6
2016-01-25T05:12:39.411Z,5.6
2016-01-25T05:13:38.617Z,5.6
2016-01-25T05:14:37.856Z,5.6
2016-01-25T05:15:37.078Z,5.7
2016-01-25T05:16:36.299Z,5.6
2016-01-25T05:17:35.522Z,5.6
2016-01-25T05:18:34.744Z,5.6
2016-01-25T05:19:33.965Z,5.5
2016-01-25T05:20:33.252Z,5.5
2016-01-25T05:21:34.972Z,5.5
2016-01-25T05:22:34.195Z,5.5
2016-01-25T05:23:33.417Z,5.5
2016-01-25T05:24:32.639Z,5.5
2016-01-25T05:25:31.860Z,5.6
2016-01-25T05:26:31.085Z,5.6
2016-01-25T05:27:30.291Z,5.7
2016-01-25T05:28:29.527Z,5.7
2016-01-25T05:29:28.735Z,5.7
2016-01-25T05:30:28.034Z,5.6
2016-01-25T05:31:29.760Z,5.6
2016-01-25T05:32:28.982Z,5.6
2016-01-25T05:33:28.204Z,5.6
2016-01-25T05:34:27.426Z,5.6
2016-01-25T05:35:26.647Z,5.6
2016-01-25T05:36:25.869Z,5.6
2016-01-25T05:37:25.090Z,5.6
2016-01-25T05:38:24.312Z,5.5
2016-01-25T05:39:23.534Z,5.5
2016-01-25T05:40:22.817Z,5.5
2016-01-25T05:41:24.539Z,5.5
2016-01-25T05:42:23.762Z,5.6
2016-01-25T05:43:22.984Z,5.6
2016-01-25T05:44:22.205Z,5.6
2016-01-25T05:45:21.427Z,5.6
2016-01-25T05:46:20.649Z,5.7
2016-01-25T05:47:19.887Z,5.6
2016-01-25T05:48:19.077Z,5.7
2016-01-25T05:49:18.298Z,5.7
2016-01-25T05:50:17.583Z,5.7
2016-01-25T05:51:19.303Z,5.7
2016-01-25T05:52:18.526Z,5.7
2016-01-25T05:53:17.747Z,5.7
2016-01-25T05:54:16.984Z,5.7
2016-01-25T05:55:16.190Z,5.7
2016-01-25T05:56:15.412Z,5.7
2016-01-25T05:57:14.650Z,5.6
2016-01-25T05:58:13.856Z,5.7
2016-01-25T05:59:13.077Z,5.7
2016-01-25T06:00:12.611Z,5.7
2016-01-25T06:01:14.336Z,5.7
2016-01-25T06:02:13.558Z,5.7
2016-01-25T06:03:12.779Z,5.7
2016-01-25T06:04:12.008Z,5.7
2016-01-25T06:05:11.213Z,5.7
2016-01-25T06:06:10.435Z,5.7
2016-01-25T06:07:09.656Z,5.7
2016-01-25T06:08:08.875Z,5.7
2016-01-25T06:09:08.096Z,5.7
2016-01-25T06:10:07.382Z,5.7
2016-01-25T06:11:09.135Z,5.8
2016-01-25T06:12:08.328Z,5.8
2016-01-25T06:13:07.550Z,5.8
2016-01-25T06:14:06.758Z,5.8
2016-01-25T06:15:05.979Z,5.8
2016-01-25T06:16:05.200Z,5.8
2016-01-25T06:17:04.437Z,5.8
2016-01-25T06:18:03.644Z,5.9
2016-01-25T06:19:02.866Z,5.9
2016-01-25T06:20:02.399Z,6
2016-01-25T06:21:04.122Z,6
2016-01-25T06:22:03.342Z,6
2016-01-25T06:23:02.565Z,6
2016-01-25T06:24:01.786Z,5.9
2016-01-25T06:25:01.008Z,5.9
2016-01-25T06:26:00.232Z,5.9
2016-01-25T06:26:59.469Z,5.9
2016-01-25T06:27:58.661Z,5.9
2016-01-25T06:28:57.883Z,5.9
2016-01-25T06:29:57.150Z,5.9
2016-01-25T06:30:58.889Z,5.9
2016-01-25T06:31:58.110Z,5.9
2016-01-25T06:32:57.317Z,5.9
2016-01-25T06:33:56.537Z,5.9
2016-01-25T06:34:55.759Z,6
2016-01-25T06:35:54.968Z,5.9
2016-01-25T06:36:54.206Z,5.9
2016-01-25T06:37:53.411Z,6
2016-01-25T06:38:52.632Z,6
2016-01-25T06:39:51.902Z,6
2016-01-25T06:40:53.631Z,5.9
2016-01-25T06:41:52.838Z,5.9
2016-01-25T06:42:52.058Z,5.9
2016-01-25T06:43:51.283Z,5.9
2016-01-25T06:44:50.506Z,6
2016-01-25T06:45:49.728Z,6
2016-01-25T06:46:48.948Z,6
2016-01-25T06:47:48.155Z,5.9
2016-01-25T06:48:47.377Z,5.9
2016-01-25T06:49:46.645Z,5.9
2016-01-25T06:50:48.367Z,5.9
2016-01-25T06:51:47.587Z,5.9
2016-01-25T06:52:46.826Z,6
2016-01-25T06:53:46.032Z,6
2016-01-25T06:54:45.253Z,6
2016-01-25T06:55:44.475Z,5.9
2016-01-25T06:56:43.696Z,5.9
2016-01-25T06:57:42.902Z,5.9
2016-01-25T06:58:42.125Z,6
2016-01-25T06:59:41.408Z,5.9
2016-01-25T07:00:43.122Z,6
2016-01-25T07:01:42.343Z,5.9
2016-01-25T07:02:41.551Z,5.9
2016-01-25T07:03:41.037Z,6
2016-01-25T07:04:40.243Z,6
2016-01-25T07:05:39.481Z,6
2016-01-25T07:06:38.937Z,6
2016-01-25T07:07:38.162Z,6
2016-01-25T07:08:37.368Z,6
2016-01-25T07:09:36.635Z,5.9
2016-01-25T07:10:38.373Z,5.9
2016-01-25T07:11:37.579Z,6
2016-01-25T07:12:36.801Z,6
2016-01-25T07:13:36.085Z,6
2016-01-25T07:14:35.245Z,6
2016-01-25T07:15:34.450Z,5.9
2016-01-25T07:16:33.672Z,5.9
2016-01-25T07:17:33.144Z,5.9
2016-01-25T07:18:32.621Z,6
2016-01-25T07:19:32.158Z,6
2016-01-25T07:20:33.879Z,6
2016-01-25T07:21:33.350Z,6.1
2016-01-25T07:22:32.822Z,6.1
2016-01-25T07:23:32.043Z,6
2016-01-25T07:24:31.516Z,6.1
2016-01-25T07:25:30.988Z,6
2016-01-25T07:26:30.490Z,6.1
2016-01-25T07:27:29.681Z,6.1
2016-01-25T07:28:29.152Z,6.1
2016-01-25T07:29:28.685Z,6.1
2016-01-25T07:30:30.424Z,6.2
2016-01-25T07:31:29.879Z,6.2
2016-01-25T07:32:29.352Z,6.1
2016-01-25T07:33:28.573Z,6.2
2016-01-25T07:34:27.780Z,6.2
2016-01-25T07:35:27.250Z,6.2
2016-01-25T07:36:26.737Z,6.1
2016-01-25T07:37:26.212Z,6.1
2016-01-25T07:38:25.418Z,6.1
2016-01-25T07:39:24.702Z,6.1
2016-01-25T07:40:26.424Z,6.2
2016-01-25T07:41:25.633Z,6.2
2016-01-25T07:42:25.119Z,6.2
2016-01-25T07:43:24.598Z,6.2
2016-01-25T07:44:23.820Z,6.2
2016-01-25T07:45:23.012Z,6.2
2016-01-25T07:46:22.500Z,6.2
2016-01-25T07:47:21.971Z,6.3
2016-01-25T07:48:21.193Z,6.2
2016-01-25T07:49:20.712Z,6.3
2016-01-25T07:50:22.449Z,6.3
2016-01-25T07:51:21.920Z,6.3
2016-01-25T07:52:21.391Z,6.4
2016-01-25T07:53:21.113Z,6.5
2016-01-25T07:54:20.851Z,6.5
2016-01-25T07:55:20.323Z,6.5
2016-01-25T07:56:19.795Z,6.5
2016-01-25T07:57:19.019Z,6.5
2016-01-25T07:58:18.225Z,6.5
2016-01-25T07:59:17.496Z,6.6
2016-01-25T08:00:19.234Z,6.5
2016-01-25T08:01:18.455Z,6.6
2016-01-25T08:02:17.647Z,6.5
2016-01-25T08:03:16.867Z,6.5
2016-01-25T08:04:16.092Z,6.5
2016-01-25T08:05:15.311Z,6.5
2016-01-25T08:06:14.548Z,6.6
2016-01-25T08:07:13.740Z,6.6
2016-01-25T08:08:12.945Z,6.7
2016-01-25T08:09:12.212Z,6.7
2016-01-25T08:10:13.934Z,6.7
2016-01-25T08:11:13.171Z,6.7
2016-01-25T08:12:12.380Z,6.7
2016-01-25T08:13:11.585Z,6.7
2016-01-25T08:14:10.828Z,6.7
2016-01-25T08:15:10.018Z,6.7
2016-01-25T08:16:09.242Z,6.7
2016-01-25T08:17:08.465Z,6.7
2016-01-25T08:18:07.670Z,6.7
2016-01-25T08:19:06.939Z,6.7
2016-01-25T08:20:08.692Z,6.7
2016-01-25T08:21:07.901Z,6.8
2016-01-25T08:22:07.091Z,6.8
2016-01-25T08:23:06.312Z,6.8
2016-01-25T08:24:05.550Z,6.9
2016-01-25T08:25:04.741Z,6.9
2016-01-25T08:26:04.009Z,6.9
2016-01-25T08:27:03.183Z,6.9
2016-01-25T08:28:02.405Z,6.9
2016-01-25T08:29:01.675Z,6.9
2016-01-25T08:30:03.381Z,6.9
2016-01-25T08:31:02.601Z,7
2016-01-25T08:32:01.822Z,7
2016-01-25T08:33:01.028Z,7
2016-01-25T08:34:00.251Z,7
2016-01-25T08:34:59.457Z,7
2016-01-25T08:35:58.678Z,7.1
2016-01-25T08:36:57.885Z,7
2016-01-25T08:37:57.122Z,7
2016-01-25T08:38:56.374Z,7
2016-01-25T08:39:58.097Z,7.1
2016-01-25T08:40:57.318Z,7.1
2016-01-25T08:41:56.525Z,7.1
2016-01-25T08:42:55.746Z,7.1
2016-01-25T08:43:54.953Z,7.1
2016-01-25T08:44:54.159Z,7.1
2016-01-25T08:45:53.383Z,7.2
2016-01-25T08:46:52.604Z,7.2
2016-01-25T08:47:51.810Z,7.2
2016-01-25T08:48:51.079Z,7.2
2016-01-25T08:49:52.800Z,7.1
2016-01-25T08:50:52.006Z,7.2
2016-01-25T08:51:51.228Z,7.1
2016-01-25T08:52:50.450Z,7.2
2016-01-25T08:53:49.640Z,7.3
2016-01-25T08:54:48.864Z,7.3
2016-01-25T08:55:48.071Z,7.4
2016-01-25T08:56:47.293Z,7.4
2016-01-25T08:57:46.499Z,7.3
2016-01-25T08:58:45.782Z,7.4
2016-01-25T08:59:47.489Z,7.4
2016-01-25T09:00:46.715Z,7.4
2016-01-25T09:01:45.920Z,7.5
2016-01-25T09:02:45.126Z,7.5
2016-01-25T09:03:44.366Z,7.5
2016-01-25T09:04:43.557Z,7.5
2016-01-25T09:05:42.764Z,7.4
2016-01-25T09:06:41.986Z,7.4
2016-01-25T09:07:41.207Z,7.4
2016-01-25T09:08:40.461Z,7.4
2016-01-25T09:09:42.182Z,7.5
2016-01-25T09:10:41.387Z,7.5
2016-01-25T09:11:40.609Z,7.5
2016-01-25T09:12:39.815Z,7.5
2016-01-25T09:13:39.071Z,7.5
2016-01-25T09:14:38.230Z,7.5
2016-01-25T09:15:37.452Z,7.6
2016-01-25T09:16:36.659Z,7.6
2016-01-25T09:17:35.872Z,7.6
2016-01-25T09:18:35.155Z,7.6
2016-01-25T09:19:36.860Z,7.6
2016-01-25T09:20:36.067Z,7.6
2016-01-25T09:21:35.320Z,7.5
2016-01-25T09:22:34.495Z,7.5
2016-01-25T09:23:33.717Z,7.6
2016-01-25T09:24:32.985Z,7.6
2016-01-25T09:25:32.128Z,7.6
2016-01-25T09:26:31.335Z,7.7
2016-01-25T09:27:30.542Z,7.7
2016-01-25T09:28:29.809Z,7.6
2016-01-25T09:29:31.530Z,7.6
2016-01-25T09:30:30.752Z,7.6
2016-01-25T09:31:29.960Z,7.6
2016-01-25T09:32:29.197Z,7.6
2016-01-25T09:33:28.387Z,7.7
2016-01-25T09:34:27.609Z,7.7
2016-01-25T09:35:26.816Z,7.7
2016-01-25T09:36:26.024Z,7.7
2016-01-25T09:37:25.245Z,7.7
2016-01-25T09:38:24.497Z,7.7
2016-01-25T09:39:26.235Z,7.7
2016-01-25T09:40:25.442Z,7.7
2016-01-25T09:41:24.632Z,7.8
2016-01-25T09:42:23.854Z,7.8
2016-01-25T09:43:23.060Z,7.8
2016-01-25T09:44:22.265Z,7.8
2016-01-25T09:45:21.471Z,7.7
2016-01-25T09:46:20.690Z,7.7
2016-01-25T09:47:19.881Z,7.7
2016-01-25T09:48:19.143Z,7.7
2016-01-25T09:49:20.864Z,7.7
2016-01-25T09:50:20.086Z,7.7
2016-01-25T09:51:19.293Z,7.7
2016-01-25T09:52:18.515Z,7.7
2016-01-25T09:53:17.723Z,7.7
2016-01-25T09:54:16.959Z,7.7
2016-01-25T09:55:16.150Z,7.8
2016-01-25T09:56:15.356Z,7.9
2016-01-25T09:57:14.563Z,7.9
2016-01-25T09:58:13.800Z,7.9
2016-01-25T09:59:15.553Z,8
2016-01-25T10:00:14.759Z,8.1
2016-01-25T10:01:13.967Z,8
2016-01-25T10:02:13.203Z,8
2016-01-25T10:03:12.367Z,7.9
2016-01-25T10:04:11.591Z,7.9
2016-01-25T10:05:10.797Z,7.9
2016-01-25T10:06:10.003Z,7.9
2016-01-25T10:07:09.209Z,7.9
2016-01-25T10:08:08.493Z,8
2016-01-25T10:09:10.215Z,8
2016-01-25T10:10:09.421Z,8
2016-01-25T10:11:08.628Z,8
2016-01-25T10:12:07.850Z,8
2016-01-25T10:13:07.039Z,8
2016-01-25T10:14:06.246Z,7.9
2016-01-25T10:15:05.471Z,8
2016-01-25T10:16:04.648Z,7.9
2016-01-25T10:17:03.870Z,7.9
2016-01-25T10:18:03.154Z,7.8
2016-01-25T10:19:04.831Z,7.9
2016-01-25T10:20:04.055Z,7.9
2016-01-25T10:21:03.292Z,7.9
2016-01-25T10:22:02.480Z,7.9
2016-01-25T10:23:01.685Z,7.8
2016-01-25T10:24:00.909Z,7.8
2016-01-25T10:25:00.100Z,7.8
2016-01-25T10:25:59.321Z,7.8
2016-01-25T10:26:58.542Z,7.8
2016-01-25T10:27:57.781Z,7.8
2016-01-25T10:28:59.470Z,7.9
2016-01-25T10:29:58.911Z,8
2016-01-25T10:30:57.914Z,7.9
2016-01-25T10:31:57.339Z,8
2016-01-25T10:32:56.343Z,7.9
2016-01-25T10:33:55.549Z,8
2016-01-25T10:34:54.738Z,7.9
2016-01-25T10:35:54.166Z,7.9
2016-01-25T10:36:53.185Z,7.8
2016-01-25T10:37:52.425Z,7.8
2016-01-25T10:38:54.193Z,7.8
2016-01-25T10:39:53.336Z,7.8
2016-01-25T10:40:52.560Z,7.8
2016-01-25T10:41:51.766Z,7.9
2016-01-25T10:42:50.988Z,7.9
2016-01-25T10:43:50.178Z,7.9
2016-01-25T10:44:49.619Z,7.9
2016-01-25T10:45:48.607Z,8
2016-01-25T10:46:47.812Z,8
2016-01-25T10:47:47.097Z,8
2016-01-25T10:48:48.771Z,8
2016-01-25T10:49:48.011Z,8
2016-01-25T10:50:47.229Z,8.1
2016-01-25T10:51:46.435Z,8.1
2016-01-25T10:52:45.625Z,8
2016-01-25T10:53:44.848Z,8
2016-01-25T10:54:44.023Z,8
2016-01-25T10:55:43.214Z,7.9
2016-01-25T10:56:42.466Z,7.9
2016-01-25T10:57:41.719Z,8
2016-01-25T10:58:43.442Z,8
2016-01-25T10:59:42.647Z,8.1
2016-01-25T11:00:41.854Z,8
2016-01-25T11:01:41.045Z,7.9
2016-01-25T11:02:40.266Z,8
2016-01-25T11:03:39.473Z,8
2016-01-25T11:04:38.665Z,8.1
2016-01-25T11:05:37.902Z,8.1
2016-01-25T11:06:37.108Z,8.1
2016-01-25T11:07:36.360Z,8.1
2016-01-25T11:08:38.053Z,8.1
2016-01-25T11:09:37.290Z,8.1
2016-01-25T11:10:36.512Z,8.1
2016-01-25T11:11:35.702Z,8.1
2016-01-25T11:12:34.909Z,8.1
2016-01-25T11:13:34.115Z,8.1
2016-01-25T11:14:33.305Z,8.1
2016-01-25T11:15:32.526Z,8.1
2016-01-25T11:16:31.732Z,8.1
2016-01-25T11:17:31.001Z,8.1
2016-01-25T11:18:32.708Z,8.1
2016-01-25T11:19:31.913Z,8.1
2016-01-25T11:20:31.135Z,8.1
2016-01-25T11:21:30.334Z,8.1
2016-01-25T11:22:29.541Z,8.1
2016-01-25T11:23:28.748Z,8.1
2016-01-25T11:24:27.953Z,8.1
2016-01-25T11:25:27.145Z,8.1
2016-01-25T11:26:26.335Z,8.1
2016-01-25T11:27:25.618Z,8.1
2016-01-25T11:29:26.545Z,8.2
2016-01-25T11:30:25.752Z,8.2
2016-01-25T11:31:24.959Z,8.3
2016-01-25T11:32:24.149Z,8.3
2016-01-25T11:33:23.368Z,8.2
2016-01-25T11:34:22.557Z,8.3
2016-01-25T11:35:21.780Z,8.3
2016-01-25T11:36:20.971Z,8.3
2016-01-25T11:37:20.238Z,8.3
2016-01-25T11:38:21.929Z,8.3
2016-01-25T11:39:21.134Z,8.3
2016-01-25T11:40:20.342Z,8.2
2016-01-25T11:41:19.579Z,8.2
2016-01-25T11:42:18.769Z,8.2
2016-01-25T11:43:17.994Z,8.2
2016-01-25T11:44:17.184Z,8.1
2016-01-25T11:45:16.407Z,8.2
2016-01-25T11:46:15.597Z,8.2
2016-01-25T11:47:14.880Z,8.1
2016-01-25T11:48:16.573Z,8.1
2016-01-25T11:49:15.779Z,8.1
2016-01-25T11:50:15.001Z,8.1
2016-01-25T11:51:14.191Z,8.1
2016-01-25T11:52:13.414Z,8.1
2016-01-25T11:53:12.621Z,8.2
2016-01-25T11:54:11.811Z,8.2
2016-01-25T11:55:11.018Z,8.3
2016-01-25T11:56:10.225Z,8.3
2016-01-25T11:57:09.493Z,8.3
2016-01-25T11:58:11.200Z,8.3
2016-01-25T11:59:10.533Z,8.3
2016-01-25T12:00:09.613Z,8.3
2016-01-25T12:01:08.822Z,8.3
2016-01-25T12:02:08.027Z,8.4
2016-01-25T12:03:07.234Z,8.4
2016-01-25T12:04:06.408Z,8.3
2016-01-25T12:05:05.645Z,8.3
2016-01-25T12:06:04.822Z,8.3
2016-01-25T12:07:04.121Z,8.3
2016-01-25T12:08:05.828Z,8.3
2016-01-25T12:09:05.033Z,8.3
2016-01-25T12:10:04.239Z,8.3
2016-01-25T12:11:03.415Z,8.3
2016-01-25T12:12:02.652Z,8.4
2016-01-25T12:13:01.873Z,8.4
2016-01-25T12:14:01.047Z,8.3
2016-01-25T12:15:00.254Z,8.3
2016-01-25T12:15:59.445Z,8.3
2016-01-25T12:16:58.729Z,8.3
2016-01-25T12:18:00.435Z,8.3
2016-01-25T12:18:59.644Z,8.3
2016-01-25T12:19:58.835Z,8.3
2016-01-25T12:20:58.055Z,8.3
2016-01-25T12:21:57.259Z,8.3
2016-01-25T12:22:56.464Z,8.3
2016-01-25T12:23:55.670Z,8.3
2016-01-25T12:24:54.878Z,8.3
2016-01-25T12:25:54.100Z,8.3
2016-01-25T12:26:53.355Z,8.4
2016-01-25T12:27:55.061Z,8.4
2016-01-25T12:28:54.269Z,8.4
2016-01-25T12:29:53.475Z,8.4
2016-01-25T12:30:52.883Z,8.4
2016-01-25T12:31:51.871Z,8.4
2016-01-25T12:32:51.094Z,8.4
2016-01-25T12:33:50.285Z,8.3
2016-01-25T12:34:49.490Z,8.3
2016-01-25T12:35:48.696Z,8.3
2016-01-25T12:36:47.937Z,8.3
2016-01-25T12:37:49.678Z,8.3
2016-01-25T12:38:48.883Z,8.3
2016-01-25T12:39:48.089Z,8.3
2016-01-25T12:40:47.295Z,8.3
2016-01-25T12:41:46.485Z,8.3
2016-01-25T12:42:45.692Z,8.3
2016-01-25T12:43:44.898Z,8.3
2016-01-25T12:44:44.136Z,8.4
2016-01-25T12:45:43.295Z,8.4
2016-01-25T12:46:42.579Z,8.4
2016-01-25T12:47:44.300Z,8.4
2016-01-25T12:48:43.475Z,8.4
2016-01-25T12:49:42.666Z,8.3
2016-01-25T12:50:41.887Z,8.4
2016-01-25T12:51:41.125Z,8.4
2016-01-25T12:52:40.331Z,8.4
2016-01-25T12:53:39.521Z,8.3
2016-01-25T12:54:38.711Z,8.3
2016-01-25T12:55:37.918Z,8.3
2016-01-25T12:56:37.171Z,8.3
2016-01-25T12:57:38.892Z,8.3
2016-01-25T12:58:38.100Z,8.2
2016-01-25T12:59:37.289Z,8.2
2016-01-25T13:00:36.513Z,8.3
2016-01-25T13:01:35.719Z,8.3
2016-01-25T13:02:34.924Z,8.3
2016-01-25T13:03:34.117Z,8.3
2016-01-25T13:04:33.327Z,8.2
2016-01-25T13:05:32.548Z,8.2
2016-01-25T13:06:31.801Z,8.3
2016-01-25T13:07:33.507Z,8.2
2016-01-25T13:08:32.729Z,8.2
2016-01-25T13:09:31.920Z,8.1
2016-01-25T13:10:31.156Z,8.2
2016-01-25T13:11:30.331Z,8.2
2016-01-25T13:12:29.519Z,8.2
2016-01-25T13:13:28.727Z,8.2
2016-01-25T13:14:27.964Z,8.2
2016-01-25T13:15:27.154Z,8.2
2016-01-25T13:16:26.408Z,8.2
2016-01-25T13:17:28.098Z,8.3
2016-01-25T13:18:27.322Z,8.2
2016-01-25T13:19:26.528Z,8.2
2016-01-25T13:20:25.717Z,8.2
2016-01-25T13:21:24.942Z,8.3
2016-01-25T13:22:24.147Z,8.4
2016-01-25T13:23:23.356Z,8.4
2016-01-25T13:24:22.561Z,8.4
2016-01-25T13:25:21.752Z,8.4
2016-01-25T13:26:21.021Z,8.4
2016-01-25T13:27:22.727Z,8.4
2016-01-25T13:28:21.948Z,8.4
2016-01-25T13:29:21.341Z,8.3
2016-01-25T13:30:20.328Z,8.3
2016-01-25T13:31:19.535Z,8.3
2016-01-25T13:32:18.742Z,8.3
2016-01-25T13:33:17.947Z,8.3
2016-01-25T13:34:17.138Z,8.3
2016-01-25T13:35:16.359Z,8.4
2016-01-25T13:36:15.628Z,8.4
2016-01-25T13:37:17.350Z,8.5
2016-01-25T13:38:16.541Z,8.5
2016-01-25T13:39:15.748Z,8.5
2016-01-25T13:40:14.954Z,8.5
2016-01-25T13:41:14.133Z,8.5
2016-01-25T13:42:13.344Z,8.5
2016-01-25T13:43:12.538Z,8.5
2016-01-25T13:44:11.733Z,8.5